createdAt,value
2016-11-17T00:00:31.013Z,10.41
2016-11-17T00:01:41.344Z,10.36
2016-11-17T00:02:51.697Z,10.34
2016-11-17T00:04:01.791Z,10.25
2016-11-17T00:05:12.134Z,10.38
2016-11-17T00:06:21.882Z,10.33
2016-11-17T00:07:31.898Z,10.34
2016-11-17T00:08:41.610Z,10.23
2016-11-17T00:09:51.970Z,10.62
2016-11-17T00:11:02.122Z,10.75
2016-11-17T00:12:11.960Z,10.69
2016-11-17T00:13:21.997Z,10.71
2016-11-17T00:14:32.015Z,10.68
2016-11-17T00:15:42.434Z,10.75
2016-11-17T00:16:52.775Z,10.71
2016-11-17T00:18:02.781Z,10.57
2016-11-17T00:19:12.487Z,10.72
2016-11-17T00:20:22.364Z,10.71
2016-11-17T00:21:32.733Z,10.25
2016-11-17T00:22:42.240Z,10.09
2016-11-17T00:23:52.434Z,10
2016-11-17T00:25:02.475Z,10.07
2016-11-17T00:26:12.994Z,10.03
2016-11-17T00:27:22.685Z,9.99
2016-11-17T00:28:32.443Z,9.99
2016-11-17T00:29:42.773Z,9.97
2016-11-17T00:30:52.854Z,9.9
2016-11-17T00:32:02.882Z,9.88
2016-11-17T00:33:12.948Z,9.88
2016-11-17T00:34:22.653Z,9.94
2016-11-17T00:35:32.055Z,9.95
2016-11-17T00:36:42.179Z,9.9
2016-11-17T00:37:51.882Z,9.92
2016-11-17T00:39:01.991Z,9.94
2016-11-17T00:40:12.303Z,9.94
2016-11-17T00:41:22.018Z,9.99
2016-11-17T00:42:32.194Z,9.95
2016-11-17T00:43:41.594Z,9.92
2016-11-17T00:44:51.974Z,9.9
2016-11-17T00:46:01.383Z,9.92
2016-11-17T00:47:11.393Z,10.03
2016-11-17T00:48:21.125Z,9.9
2016-11-17T00:49:31.230Z,10.02
2016-11-17T00:50:41.037Z,9.97
2016-11-17T00:51:51.070Z,10.07
2016-11-17T00:53:01.442Z,10.05
2016-11-17T00:54:11.522Z,9.97
2016-11-17T00:55:21.542Z,10.05
2016-11-17T00:56:31.288Z,10.05
2016-11-17T00:57:40.991Z,10.06
2016-11-17T00:58:51.328Z,10.2
2016-11-17T01:00:01.373Z,10.2
2016-11-17T01:01:11.480Z,10.07
2016-11-17T01:02:21.540Z,10.09
2016-11-17T01:03:31.552Z,10.09
2016-11-17T01:04:41.608Z,10.09
2016-11-17T01:05:51.322Z,10.07
2016-11-17T01:07:01.202Z,10.09
2016-11-17T01:08:10.602Z,10
2016-11-17T01:09:20.943Z,9.99
2016-11-17T01:10:31.272Z,9.97
2016-11-17T01:11:41.641Z,10.07
2016-11-17T01:12:51.338Z,9.99
2016-11-17T01:14:01.414Z,10
2016-11-17T01:15:11.109Z,9.97
2016-11-17T01:16:21.428Z,10.05
2016-11-17T01:17:31.496Z,10
2016-11-17T01:18:41.821Z,10.06
2016-11-17T01:19:51.587Z,9.91
2016-11-17T01:21:01.042Z,9.97
2016-11-17T01:22:11.121Z,9.95
2016-11-17T01:23:21.250Z,10
2016-11-17T01:24:30.949Z,9.99
2016-11-17T01:25:41.032Z,9.95
2016-11-17T01:26:51.038Z,10.03
2016-11-17T01:28:01.042Z,10.02
2016-11-17T01:29:10.439Z,10.03
2016-11-17T01:30:20.498Z,10.05
2016-11-17T01:31:30.211Z,10.02
2016-11-17T01:32:39.913Z,9.97
2016-11-17T01:33:49.923Z,10
2016-11-17T01:35:00.387Z,10.1
2016-11-17T01:36:10.112Z,10.1
2016-11-17T01:37:19.831Z,10.09
2016-11-17T01:38:29.560Z,10.07
2016-11-17T01:39:39.011Z,10.07
2016-11-17T01:40:49.341Z,10.06
2016-11-17T01:41:58.741Z,10.06
2016-11-17T01:43:08.812Z,10.03
2016-11-17T01:44:19.133Z,10.09
2016-11-17T01:45:29.161Z,10.02
2016-11-17T01:46:39.498Z,9.97
2016-11-17T01:47:49.267Z,9.97
2016-11-17T01:48:59.645Z,10.02
2016-11-17T01:50:09.695Z,10.02
2016-11-17T01:51:20.059Z,9.99
2016-11-17T01:52:30.391Z,10.03
2016-11-17T01:53:40.721Z,10.05
2016-11-17T01:54:50.730Z,10.07
2016-11-17T01:56:00.756Z,10.07
2016-11-17T01:57:10.232Z,10.06
2016-11-17T01:58:19.932Z,10.06
2016-11-17T01:59:29.972Z,10.07
2016-11-17T02:00:39.989Z,10.05
2016-11-17T02:01:50.091Z,10.03
2016-11-17T02:03:00.135Z,10.07
2016-11-17T02:04:10.181Z,10.09
2016-11-17T02:05:20.528Z,10.07
2016-11-17T02:06:30.551Z,10.09
2016-11-17T02:07:40.878Z,9.94
2016-11-17T02:08:50.950Z,10.05
2016-11-17T02:10:00.671Z,10
2016-11-17T02:11:10.511Z,9.95
2016-11-17T02:12:20.291Z,9.94
2016-11-17T02:13:30.347Z,9.92
2016-11-17T02:14:40.390Z,9.81
2016-11-17T02:15:50.230Z,9.76
2016-11-17T02:16:59.669Z,9.73
2016-11-17T02:18:09.379Z,9.76
2016-11-17T02:19:19.443Z,9.8
2016-11-17T02:20:29.465Z,9.76
2016-11-17T02:21:39.578Z,9.69
2016-11-17T02:22:49.288Z,9.69
2016-11-17T02:23:59.138Z,9.74
2016-11-17T02:25:08.531Z,9.7
2016-11-17T02:26:18.854Z,9.67
2016-11-17T02:27:28.607Z,9.66
2016-11-17T02:28:38.316Z,9.72
2016-11-17T02:29:48.375Z,9.66
2016-11-17T02:30:58.176Z,9.62
2016-11-17T02:32:08.171Z,9.62
2016-11-17T02:33:18.233Z,9.58
2016-11-17T02:34:27.934Z,9.42
2016-11-17T02:35:38.341Z,9.45
2016-11-17T02:36:48.640Z,9.4
2016-11-17T02:37:58.660Z,9.29
2016-11-17T02:39:08.404Z,9.27
2016-11-17T02:40:18.477Z,9.22
2016-11-17T02:41:28.550Z,9.18
2016-11-17T02:42:38.664Z,8.97
2016-11-17T02:43:48.740Z,9.15
2016-11-17T02:44:58.746Z,9.02
2016-11-17T02:46:08.442Z,8.97
2016-11-17T02:47:18.493Z,8.89
2016-11-17T02:48:28.829Z,8.86
2016-11-17T02:49:38.568Z,8.79
2016-11-17T02:50:48.694Z,8.75
2016-11-17T02:51:58.422Z,8.71
2016-11-17T02:53:08.514Z,8.69
2016-11-17T02:54:18.852Z,8.81
2016-11-17T02:55:28.927Z,8.64
2016-11-17T02:56:38.625Z,8.79
2016-11-17T02:57:49.006Z,8.86
2016-11-17T02:58:59.036Z,8.92
2016-11-17T03:00:08.421Z,8.93
2016-11-17T03:01:18.140Z,9.05
2016-11-17T03:02:28.173Z,8.96
2016-11-17T03:03:38.584Z,9
2016-11-17T03:04:49.002Z,9.12
2016-11-17T03:05:58.391Z,9.08
2016-11-17T03:07:08.500Z,9.09
2016-11-17T03:08:18.562Z,9
2016-11-17T03:09:28.621Z,8.96
2016-11-17T03:10:38.614Z,9.03
2016-11-17T03:11:48.622Z,8.86
2016-11-17T03:12:58.412Z,9
2016-11-17T03:14:08.408Z,9
2016-11-17T03:15:18.420Z,8.93
2016-11-17T03:16:28.430Z,8.97
2016-11-17T03:17:38.770Z,8.97
2016-11-17T03:18:48.561Z,9.03
2016-11-17T03:19:58.941Z,9.11
2016-11-17T03:21:08.640Z,9.02
2016-11-17T03:22:18.418Z,8.97
2016-11-17T03:23:28.179Z,8.99
2016-11-17T03:24:38.649Z,9.02
2016-11-17T03:25:48.639Z,8.99
2016-11-17T03:26:58.391Z,9.05
2016-11-17T03:28:08.100Z,9.05
2016-11-17T03:29:18.540Z,9.05
2016-11-17T03:30:28.560Z,9.12
2016-11-17T03:31:37.656Z,8.97
2016-11-17T03:32:47.649Z,9.12
2016-11-17T03:33:57.970Z,9.11
2016-11-17T03:35:07.661Z,9.19
2016-11-17T03:36:17.674Z,9.18
2016-11-17T03:37:27.487Z,9.19
2016-11-17T03:38:36.720Z,9.18
2016-11-17T03:39:46.424Z,9.16
2016-11-17T03:40:56.484Z,9.18
2016-11-17T03:42:06.521Z,9.21
2016-11-17T03:43:16.628Z,9.16
2016-11-17T03:44:25.711Z,9.19
2016-11-17T03:45:35.737Z,9.12
2016-11-17T03:46:45.513Z,9.22
2016-11-17T03:47:55.243Z,9.21
2016-11-17T03:49:05.671Z,9.21
2016-11-17T03:50:15.774Z,9.19
2016-11-17T03:51:25.779Z,9.22
2016-11-17T03:52:35.501Z,9.21
2016-11-17T03:53:45.583Z,9.19
2016-11-17T03:54:55.593Z,9.12
2016-11-17T03:56:05.074Z,9.11
2016-11-17T03:57:14.786Z,9.11
2016-11-17T03:58:24.871Z,9.11
2016-11-17T03:59:33.959Z,9.11
2016-11-17T04:00:43.521Z,9.12
2016-11-17T04:01:53.541Z,9.09
2016-11-17T04:03:03.874Z,9.13
2016-11-17T04:04:14.191Z,9
2016-11-17T04:05:23.589Z,9.09
2016-11-17T04:06:33.291Z,9.08
2016-11-17T04:07:43.313Z,8.97
2016-11-17T04:08:53.324Z,9.09
2016-11-17T04:10:03.403Z,9.12
2016-11-17T04:11:13.422Z,9.11
2016-11-17T04:12:23.744Z,9.08
2016-11-17T04:13:33.751Z,9.08
2016-11-17T04:14:43.525Z,8.99
2016-11-17T04:15:53.551Z,9.15
2016-11-17T04:17:03.883Z,9.12
2016-11-17T04:18:13.717Z,9.11
2016-11-17T04:19:23.718Z,9.16
2016-11-17T04:20:34.023Z,9.13
2016-11-17T04:21:44.082Z,9.09
2016-11-17T04:22:53.773Z,9.08
2016-11-17T04:24:03.473Z,9.12
2016-11-17T04:25:13.475Z,9.11
2016-11-17T04:26:23.553Z,9.09
2016-11-17T04:27:33.659Z,9.11
2016-11-17T04:28:43.692Z,9.08
2016-11-17T04:29:53.080Z,9.09
2016-11-17T04:31:02.856Z,9.11
2016-11-17T04:32:12.830Z,9.12
2016-11-17T04:33:22.731Z,9.05
2016-11-17T04:34:33.064Z,9.13
2016-11-17T04:35:43.426Z,9.13
2016-11-17T04:36:53.485Z,9.12
2016-11-17T04:38:03.845Z,9.19
2016-11-17T04:39:14.174Z,9.37
2016-11-17T04:40:24.164Z,9.44
2016-11-17T04:41:34.170Z,9.44
2016-11-17T04:42:44.578Z,9.4
2016-11-17T04:43:54.604Z,9.36
2016-11-17T04:45:04.044Z,9.39
2016-11-17T04:46:13.727Z,9.44
2016-11-17T04:47:23.766Z,9.45
2016-11-17T04:48:33.584Z,9.48
2016-11-17T04:49:43.696Z,9.47
2016-11-17T04:50:54.025Z,9.52
2016-11-17T04:52:04.054Z,9.44
2016-11-17T04:53:14.361Z,9.44
2016-11-17T04:54:24.455Z,9.49
2016-11-17T04:55:34.186Z,9.54
2016-11-17T04:56:44.503Z,9.4
2016-11-17T04:57:54.207Z,9.49
2016-11-17T04:59:04.202Z,9.34
2016-11-17T05:00:13.954Z,9.45
2016-11-17T05:01:23.983Z,9.4
2016-11-17T05:02:34.015Z,9.44
2016-11-17T05:03:44.026Z,9.42
2016-11-17T05:04:53.799Z,9.34
2016-11-17T05:06:03.537Z,9.39
2016-11-17T05:07:13.577Z,9.29
2016-11-17T05:08:23.638Z,9.24
2016-11-17T05:09:33.696Z,9.29
2016-11-17T05:10:43.396Z,9.18
2016-11-17T05:11:53.208Z,9.12
2016-11-17T05:13:03.641Z,9.13
2016-11-17T05:14:13.787Z,9.16
2016-11-17T05:15:23.547Z,9.15
2016-11-17T05:16:33.566Z,9.22
2016-11-17T05:17:43.882Z,9.19
2016-11-17T05:18:53.268Z,9.15
2016-11-17T05:20:03.608Z,9.13
2016-11-17T05:21:13.707Z,9.16
2016-11-17T05:22:23.446Z,9.21
2016-11-17T05:23:33.748Z,9.22
2016-11-17T05:24:43.817Z,9.09
2016-11-17T05:25:54.138Z,9.18
2016-11-17T05:27:04.606Z,9.12
2016-11-17T05:28:14.653Z,9.33
2016-11-17T05:29:24.350Z,9.3
2016-11-17T05:30:33.857Z,9.34
2016-11-17T05:31:43.845Z,9.37
2016-11-17T05:32:53.593Z,9.51
2016-11-17T05:34:03.320Z,9.47
2016-11-17T05:35:13.016Z,9.62
2016-11-17T05:36:23.069Z,9.58
2016-11-17T05:37:32.482Z,9.48
2016-11-17T05:38:42.608Z,9.47
2016-11-17T05:39:53.074Z,9.45
2016-11-17T05:41:03.408Z,9.4
2016-11-17T05:42:13.779Z,9.56
2016-11-17T05:43:23.168Z,9.58
2016-11-17T05:44:33.227Z,9.56
2016-11-17T05:45:43.235Z,9.52
2016-11-17T05:46:53.277Z,9.63
2016-11-17T05:48:03.380Z,9.58
2016-11-17T05:49:13.736Z,9.56
2016-11-17T05:50:23.751Z,9.58
2016-11-17T05:51:33.788Z,9.58
2016-11-17T05:52:43.903Z,9.63
2016-11-17T05:53:53.911Z,9.58
2016-11-17T05:55:04.295Z,9.56
2016-11-17T05:56:13.851Z,9.59
2016-11-17T05:57:23.532Z,9.55
2016-11-17T05:58:33.627Z,9.59
2016-11-17T05:59:43.659Z,9.56
2016-11-17T06:00:53.983Z,9.45
2016-11-17T06:02:04.321Z,9.47
2016-11-17T06:03:14.003Z,9.42
2016-11-17T06:04:24.009Z,9.37
2016-11-17T06:05:34.102Z,9.47
2016-11-17T06:06:44.132Z,9.45
2016-11-17T06:07:54.198Z,9.52
2016-11-17T06:09:03.585Z,9.47
2016-11-17T06:10:12.738Z,9.51
2016-11-17T06:11:22.445Z,9.48
2016-11-17T06:12:32.432Z,9.45
2016-11-17T06:13:42.908Z,9.51
2016-11-17T06:14:53.520Z,9.56
2016-11-17T06:16:03.737Z,9.58
2016-11-17T06:17:13.327Z,9.55
2016-11-17T06:18:23.621Z,9.47
2016-11-17T06:19:33.493Z,9.56
2016-11-17T06:20:43.757Z,9.55
2016-11-17T06:21:55.775Z,9.59
2016-11-17T06:23:05.843Z,9.62
2016-11-17T06:24:15.730Z,9.64
2016-11-17T06:25:25.888Z,9.7
2016-11-17T06:26:36.104Z,9.74
2016-11-17T06:27:46.594Z,9.69
2016-11-17T06:28:56.911Z,9.69
2016-11-17T06:30:06.312Z,9.58
2016-11-17T06:31:16.370Z,9.62
2016-11-17T06:32:26.378Z,9.62
2016-11-17T06:33:36.724Z,9.58
2016-11-17T06:34:47.084Z,9.63
2016-11-17T06:35:57.110Z,9.72
2016-11-17T06:37:07.124Z,9.67
2016-11-17T06:38:16.804Z,9.7
2016-11-17T06:39:25.942Z,9.74
2016-11-17T06:40:35.972Z,9.77
2016-11-17T06:41:46.026Z,9.72
2016-11-17T06:42:55.655Z,9.74
2016-11-17T06:44:05.977Z,9.77
2016-11-17T06:45:15.935Z,9.84
2016-11-17T06:46:25.998Z,9.8
2016-11-17T06:47:36.078Z,9.84
2016-11-17T06:48:46.041Z,9.8
2016-11-17T06:49:56.066Z,9.76
2016-11-17T06:51:05.815Z,9.74
2016-11-17T06:52:16.073Z,9.67
2016-11-17T06:53:25.782Z,9.62
2016-11-17T06:54:35.488Z,9.59
2016-11-17T06:55:45.420Z,9.63
2016-11-17T06:56:55.767Z,9.56
2016-11-17T06:58:05.897Z,9.62
2016-11-17T06:59:16.234Z,9.59
2016-11-17T07:00:26.299Z,9.55
2016-11-17T07:01:36.085Z,9.47
2016-11-17T07:02:46.257Z,9.49
2016-11-17T07:03:56.638Z,9.54
2016-11-17T07:05:06.699Z,9.4
2016-11-17T07:06:17.085Z,9.33
2016-11-17T07:07:26.765Z,9.29
2016-11-17T07:08:36.005Z,9.18
2016-11-17T07:09:45.712Z,9.11
2016-11-17T07:10:55.736Z,9.09
2016-11-17T07:12:05.838Z,9.02
2016-11-17T07:13:15.542Z,8.95
2016-11-17T07:14:25.256Z,8.79
2016-11-17T07:15:35.267Z,8.87
2016-11-17T07:16:45.269Z,8.77
2016-11-17T07:17:55.286Z,8.75
2016-11-17T07:19:04.998Z,8.78
2016-11-17T07:20:15.105Z,8.75
2016-11-17T07:21:24.817Z,8.63
2016-11-17T07:22:34.535Z,8.56
2016-11-17T07:23:43.939Z,8.57
2016-11-17T07:24:54.477Z,8.57
2016-11-17T07:26:04.374Z,8.46
2016-11-17T07:27:14.673Z,8.45
2016-11-17T07:28:24.455Z,8.42
2016-11-17T07:29:34.755Z,8.38
2016-11-17T07:30:44.974Z,8.35
2016-11-17T07:31:54.674Z,8.39
2016-11-17T07:33:05.028Z,8.35
2016-11-17T07:34:15.346Z,8.31
2016-11-17T07:35:25.706Z,8.35
2016-11-17T07:36:35.742Z,8.42
2016-11-17T07:37:45.756Z,8.46
2016-11-17T07:38:55.514Z,8.38
2016-11-17T07:40:05.508Z,8.38
2016-11-17T07:41:15.558Z,8.5
2016-11-17T07:42:25.883Z,8.5
2016-11-17T07:43:35.605Z,8.53
2016-11-17T07:44:45.684Z,8.57
2016-11-17T07:45:56.001Z,8.56
2016-11-17T07:47:05.388Z,8.6
2016-11-17T07:48:15.518Z,8.68
2016-11-17T07:49:25.964Z,8.66
2016-11-17T07:50:35.975Z,8.57
2016-11-17T07:51:45.971Z,8.6
2016-11-17T07:52:55.706Z,8.56
2016-11-17T07:54:05.482Z,8.59
2016-11-17T07:55:15.803Z,8.6
2016-11-17T07:56:25.505Z,8.5
2016-11-17T07:57:35.275Z,8.52
2016-11-17T07:58:45.771Z,8.57
2016-11-17T07:59:56.111Z,8.59
2016-11-17T08:01:06.145Z,8.56
2016-11-17T08:02:15.543Z,8.57
2016-11-17T08:03:25.014Z,8.53
2016-11-17T08:04:34.746Z,8.69
2016-11-17T08:05:44.749Z,8.72
2016-11-17T08:06:54.876Z,8.81
2016-11-17T08:08:05.217Z,8.89
2016-11-17T08:09:15.225Z,9
2016-11-17T08:10:25.431Z,9.11
2016-11-17T08:11:35.757Z,9.13
2016-11-17T08:12:45.776Z,9.27
2016-11-17T08:13:55.596Z,9.49
2016-11-17T08:15:06.004Z,9.48
2016-11-17T08:16:15.718Z,9.64
2016-11-17T08:17:25.726Z,9.69
2016-11-17T08:18:35.785Z,9.7
2016-11-17T08:19:45.808Z,9.81
2016-11-17T08:20:56.186Z,9.82
2016-11-17T08:22:06.609Z,9.81
2016-11-17T08:23:16.664Z,9.77
2016-11-17T08:24:26.368Z,9.87
2016-11-17T08:25:36.449Z,9.82
2016-11-17T08:26:46.831Z,9.54
2016-11-17T08:27:56.897Z,9.56
2016-11-17T08:29:06.925Z,9.69
2016-11-17T08:30:16.915Z,9.81
2016-11-17T08:31:27.233Z,9.82
2016-11-17T08:32:36.838Z,9.82
2016-11-17T08:33:46.898Z,9.8
2016-11-17T08:34:56.847Z,9.77
2016-11-17T08:36:06.318Z,9.84
2016-11-17T08:37:16.331Z,9.88
2016-11-17T08:38:26.378Z,9.82
2016-11-17T08:39:36.390Z,9.9
2016-11-17T08:40:46.961Z,9.95
2016-11-17T08:41:57.273Z,9.94
2016-11-17T08:43:07.088Z,10
2016-11-17T08:44:17.261Z,10
2016-11-17T08:45:27.301Z,9.97
2016-11-17T08:46:36.696Z,10.05
2016-11-17T08:47:46.584Z,9.95
2016-11-17T08:48:56.284Z,10.02
2016-11-17T08:50:06.734Z,10
2016-11-17T08:51:16.426Z,10.07
2016-11-17T08:52:26.237Z,10.09
2016-11-17T08:53:36.653Z,10.1
2016-11-17T08:54:47.019Z,10.07
2016-11-17T08:55:56.496Z,10.18
2016-11-17T08:57:06.942Z,10.13
2016-11-17T08:58:17.036Z,10.2
2016-11-17T08:59:27.580Z,10.31
2016-11-17T09:00:37.594Z,10.3
2016-11-17T09:01:47.337Z,10.41
2016-11-17T09:02:57.545Z,10.43
2016-11-17T09:04:07.951Z,10.53
2016-11-17T09:05:17.968Z,10.67
2016-11-17T09:06:28.044Z,10.69
2016-11-17T09:07:38.168Z,10.71
2016-11-17T09:08:47.861Z,10.83
2016-11-17T09:09:57.009Z,10.86
2016-11-17T09:11:07.025Z,10.98
2016-11-17T09:12:17.017Z,10.95
2016-11-17T09:13:27.067Z,10.94
2016-11-17T09:14:37.479Z,10.95
2016-11-17T09:15:47.004Z,10.83
2016-11-17T09:16:57.356Z,10.69
2016-11-17T09:18:07.375Z,10.71
2016-11-17T09:19:17.167Z,10.69
2016-11-17T09:20:27.170Z,10.71
2016-11-17T09:21:36.981Z,10.67
2016-11-17T09:22:46.692Z,10.75
2016-11-17T09:23:56.793Z,10.77
2016-11-17T09:25:06.879Z,10.71
2016-11-17T09:26:16.673Z,10.67
2016-11-17T09:27:26.484Z,10.67
2016-11-17T09:28:36.202Z,10.65
2016-11-17T09:29:46.193Z,10.71
2016-11-17T09:30:56.211Z,10.61
2016-11-17T09:32:06.540Z,10.49
2016-11-17T09:33:16.702Z,10.48
2016-11-17T09:34:26.448Z,10.42
2016-11-17T09:35:36.147Z,10.34
2016-11-17T09:36:46.484Z,10.25
2016-11-17T09:37:56.182Z,10.33
2016-11-17T09:39:05.875Z,10.18
2016-11-17T09:40:16.231Z,10.13
2016-11-17T09:41:26.696Z,10.02
2016-11-17T09:42:36.509Z,10.09
2016-11-17T09:43:46.831Z,10
2016-11-17T09:44:56.829Z,9.92
2016-11-17T09:46:06.978Z,9.94
2016-11-17T09:47:16.361Z,9.95
2016-11-17T09:48:26.142Z,9.95
2016-11-17T09:49:36.137Z,9.9
2016-11-17T09:50:45.873Z,9.92
2016-11-17T09:51:55.889Z,9.95
2016-11-17T09:53:05.591Z,10.06
2016-11-17T09:54:16.294Z,10
2016-11-17T09:55:25.980Z,9.97
2016-11-17T09:56:36.002Z,9.9
2016-11-17T09:57:46.100Z,10
2016-11-17T09:58:56.171Z,10.05
2016-11-17T10:00:06.261Z,10.07
2016-11-17T10:01:16.302Z,10.09
2016-11-17T10:02:26.672Z,10.06
2016-11-17T10:03:36.456Z,10.03
2016-11-17T10:04:46.191Z,10.09
2016-11-17T10:05:56.218Z,10.05
2016-11-17T10:07:06.067Z,10.06
2016-11-17T10:08:16.123Z,10.13
2016-11-17T10:09:26.176Z,10.12
2016-11-17T10:10:36.508Z,10.07
2016-11-17T10:11:46.826Z,10.15
2016-11-17T10:12:56.290Z,10.17
2016-11-17T10:14:06.322Z,10.18
2016-11-17T10:15:16.717Z,10.07
2016-11-17T10:16:27.041Z,10.06
2016-11-17T10:17:37.453Z,10.03
2016-11-17T10:18:47.194Z,10.05
2016-11-17T10:19:56.654Z,10.02
2016-11-17T10:21:06.998Z,10.15
2016-11-17T10:22:16.382Z,10.38
2016-11-17T10:23:26.734Z,10.39
2016-11-17T10:24:36.443Z,10.62
2016-11-17T10:25:46.435Z,10.76
2016-11-17T10:26:56.494Z,10.86
2016-11-17T10:28:06.531Z,11.01
2016-11-17T10:29:16.646Z,10.98
2016-11-17T10:30:26.952Z,11.13
2016-11-17T10:31:36.449Z,11.2
2016-11-17T10:32:46.475Z,11.34
2016-11-17T10:33:56.334Z,11.52
2016-11-17T10:35:06.659Z,11.55
2016-11-17T10:36:16.809Z,11.6
2016-11-17T10:37:26.833Z,11.6
2016-11-17T10:38:36.853Z,11.59
2016-11-17T10:39:47.181Z,11.63
2016-11-17T10:40:57.427Z,11.56
2016-11-17T10:42:07.251Z,11.48
2016-11-17T10:43:17.563Z,11.41
2016-11-17T10:44:27.575Z,11.48
2016-11-17T10:45:37.605Z,11.38
2016-11-17T10:46:47.658Z,11.43
2016-11-17T10:47:57.732Z,11.44
2016-11-17T10:49:07.826Z,11.44
2016-11-17T10:50:17.823Z,11.4
2016-11-17T10:51:28.187Z,11.3
2016-11-17T10:52:38.182Z,11.18
2016-11-17T10:53:48.215Z,11.13
2016-11-17T10:54:58.353Z,11.19
2016-11-17T10:56:08.098Z,11.18
2016-11-17T10:57:18.135Z,11.13
2016-11-17T10:58:28.155Z,11.12
2016-11-17T10:59:37.642Z,11.18
2016-11-17T11:00:48.305Z,11.2
2016-11-17T11:01:58.014Z,11.13
2016-11-17T11:03:08.375Z,10.98
2016-11-17T11:04:17.864Z,10.87
2016-11-17T11:05:27.697Z,10.9
2016-11-17T11:06:37.396Z,10.86
2016-11-17T11:07:47.242Z,10.79
2016-11-17T11:08:57.286Z,10.84
2016-11-17T11:10:07.614Z,10.82
2016-11-17T11:11:17.007Z,10.9
2016-11-17T11:12:27.646Z,10.84
2016-11-17T11:13:37.697Z,10.69
2016-11-17T11:14:47.398Z,10.76
2016-11-17T11:15:57.670Z,10.77
2016-11-17T11:17:07.694Z,10.77
2016-11-17T11:18:17.645Z,10.79
2016-11-17T11:19:27.416Z,10.76
2016-11-17T11:20:37.727Z,10.72
2016-11-17T11:21:47.845Z,10.8
2016-11-17T11:22:58.167Z,10.8
2016-11-17T11:24:07.674Z,10.71
2016-11-17T11:25:17.698Z,10.76
2016-11-17T11:26:28.145Z,10.75
2016-11-17T11:27:38.466Z,10.77
2016-11-17T11:28:48.618Z,10.9
2016-11-17T11:29:58.697Z,11.2
2016-11-17T11:31:09.027Z,11.23
2016-11-17T11:32:19.166Z,11.33
2016-11-17T11:33:29.484Z,11.34
2016-11-17T11:34:39.195Z,11.33
2016-11-17T11:35:48.574Z,11.34
2016-11-17T11:36:58.611Z,11.3
2016-11-17T11:38:08.608Z,11.3
2016-11-17T11:39:18.008Z,11.25
2016-11-17T11:40:27.523Z,11.25
2016-11-17T11:41:37.536Z,11.37
2016-11-17T11:42:47.835Z,11.35
2016-11-17T11:43:57.566Z,11.3
2016-11-17T11:45:07.579Z,11.34
2016-11-17T11:46:18.047Z,11.37
2016-11-17T11:47:28.358Z,11.41
2016-11-17T11:48:38.067Z,11.37
2016-11-17T11:49:47.938Z,11.26
2016-11-17T11:50:57.331Z,11.13
2016-11-17T11:52:07.927Z,11.02
2016-11-17T11:53:18.385Z,11.15
2016-11-17T11:54:28.086Z,11.18
2016-11-17T11:55:38.116Z,11.22
2016-11-17T11:56:48.244Z,11.55
2016-11-17T11:57:58.278Z,11.8
2016-11-17T11:59:07.979Z,11.85
2016-11-17T12:00:18.028Z,11.95
2016-11-17T12:01:27.637Z,11.88
2016-11-17T12:02:37.678Z,11.73
2016-11-17T12:03:47.087Z,11.7
2016-11-17T12:04:57.230Z,11.73
2016-11-17T12:06:06.975Z,11.71
2016-11-17T12:07:16.982Z,11.68
2016-11-17T12:08:26.678Z,11.7
2016-11-17T12:09:36.371Z,11.73
2016-11-17T12:10:45.868Z,11.73
2016-11-17T12:11:56.209Z,11.74
2016-11-17T12:13:06.319Z,11.67
2016-11-17T12:14:16.439Z,11.71
2016-11-17T12:15:26.470Z,11.78
2016-11-17T12:16:36.396Z,11.74
2016-11-17T12:17:46.718Z,11.63
2016-11-17T12:18:56.780Z,11.73
2016-11-17T12:20:07.097Z,11.71
2016-11-17T12:21:17.126Z,11.74
2016-11-17T12:22:26.212Z,11.74
2016-11-17T12:23:36.232Z,11.76
2016-11-17T12:24:45.929Z,11.7
2016-11-17T12:25:55.778Z,11.68
2016-11-17T12:27:06.096Z,11.74
2016-11-17T12:28:15.648Z,11.7
2016-11-17T12:29:25.751Z,11.74
2016-11-17T12:30:36.131Z,11.58
2016-11-17T12:31:45.921Z,11.48
2016-11-17T12:32:56.246Z,11.38
2016-11-17T12:34:06.317Z,11.38
2016-11-17T12:35:16.039Z,11.4
2016-11-17T12:36:25.434Z,11.3
2016-11-17T12:37:35.776Z,11.3
2016-11-17T12:38:46.106Z,11.16
2016-11-17T12:39:56.532Z,11.38
2016-11-17T12:41:06.248Z,11.23
2016-11-17T12:42:15.980Z,11.26
2016-11-17T12:43:26.300Z,11.22
2016-11-17T12:44:36.626Z,11.2
2016-11-17T12:45:46.380Z,11.2
2016-11-17T12:46:56.804Z,11.27
2016-11-17T12:48:06.510Z,11.23
2016-11-17T12:49:16.188Z,11.3
2016-11-17T12:50:25.893Z,11.37
2016-11-17T12:51:36.251Z,11.63
2016-11-17T12:52:46.399Z,11.78
2016-11-17T12:53:56.398Z,11.85
2016-11-17T12:55:06.484Z,11.99
2016-11-17T12:56:16.796Z,11.93
2016-11-17T12:57:26.937Z,12.05
2016-11-17T12:58:37.272Z,12.1
2016-11-17T12:59:47.328Z,12.21
2016-11-17T13:00:57.381Z,12.05
2016-11-17T13:02:07.411Z,12
2016-11-17T13:03:17.114Z,11.93
2016-11-17T13:04:27.427Z,11.86
2016-11-17T13:05:37.461Z,11.8
2016-11-17T13:06:47.809Z,11.7
2016-11-17T13:07:58.480Z,11.63
2016-11-17T13:09:08.006Z,11.63
2016-11-17T13:10:18.330Z,11.56
2016-11-17T13:11:28.648Z,11.63
2016-11-17T13:12:38.693Z,11.67
2016-11-17T13:13:48.080Z,11.62
2016-11-17T13:14:58.422Z,11.77
2016-11-17T13:16:08.512Z,11.83
2016-11-17T13:17:18.566Z,11.91
2016-11-17T13:18:28.581Z,11.96
2016-11-17T13:19:38.591Z,11.97
2016-11-17T13:20:48.947Z,11.95
2016-11-17T13:21:59.001Z,11.91
2016-11-17T13:23:08.741Z,11.8
2016-11-17T13:24:19.049Z,11.74
2016-11-17T13:25:28.759Z,11.73
2016-11-17T13:26:38.829Z,11.71
2016-11-17T13:27:48.642Z,11.71
2016-11-17T13:28:58.660Z,11.63
2016-11-17T13:30:08.986Z,11.6
2016-11-17T13:31:19.416Z,11.52
2016-11-17T13:32:29.199Z,11.41
2016-11-17T13:33:39.514Z,11.45
2016-11-17T13:34:49.841Z,11.55
2016-11-17T13:35:59.950Z,11.6
2016-11-17T13:37:10.260Z,11.58
2016-11-17T13:38:20.670Z,11.52
2016-11-17T13:39:31.209Z,11.59
2016-11-17T13:40:41.220Z,11.55
2016-11-17T13:41:51.330Z,11.65
2016-11-17T13:43:01.440Z,11.65
2016-11-17T13:44:11.807Z,11.73
2016-11-17T13:45:21.806Z,11.7
2016-11-17T13:46:31.961Z,11.7
2016-11-17T13:47:42.296Z,11.63
2016-11-17T13:48:52.651Z,11.71
2016-11-17T13:50:02.661Z,11.68
2016-11-17T13:51:13.090Z,11.73
2016-11-17T13:52:23.121Z,11.7
2016-11-17T13:53:33.628Z,11.68
2016-11-17T13:54:43.709Z,11.67
2016-11-17T13:55:53.761Z,11.76
2016-11-17T13:57:04.201Z,11.8
2016-11-17T13:58:14.212Z,11.77
2016-11-17T13:59:24.553Z,11.77
2016-11-17T14:00:34.626Z,11.77
2016-11-17T14:01:45.105Z,11.73
2016-11-17T14:02:54.806Z,11.77
2016-11-17T14:04:04.839Z,11.78
2016-11-17T14:05:14.861Z,11.78
2016-11-17T14:06:25.262Z,11.76
2016-11-17T14:07:34.980Z,11.74
2016-11-17T14:08:44.739Z,11.73
2016-11-17T14:09:54.961Z,11.76
2016-11-17T14:11:05.281Z,11.73
2016-11-17T14:12:15.312Z,11.73
2016-11-17T14:13:25.649Z,11.73
2016-11-17T14:14:35.990Z,11.7
2016-11-17T14:15:46.291Z,11.65
2016-11-17T14:16:56.456Z,11.58
2016-11-17T14:18:06.532Z,11.59
2016-11-17T14:19:16.844Z,11.38
2016-11-17T14:20:27.292Z,11.4
2016-11-17T14:21:37.330Z,11.35
2016-11-17T14:22:47.332Z,11.2
2016-11-17T14:23:57.177Z,11.22
2016-11-17T14:25:07.843Z,11.27
2016-11-17T14:26:17.940Z,11.19
2016-11-17T14:27:28.281Z,11.02
2016-11-17T14:28:37.678Z,11.02
2016-11-17T14:29:47.794Z,10.84
2016-11-17T14:30:57.929Z,10.77
2016-11-17T14:32:07.363Z,10.71
2016-11-17T14:33:17.173Z,10.67
2016-11-17T14:34:27.492Z,10.65
2016-11-17T14:35:37.502Z,10.48
2016-11-17T14:36:47.185Z,10.48
2016-11-17T14:37:56.885Z,10.48
2016-11-17T14:39:06.600Z,10.46
2016-11-17T14:40:16.930Z,10.39
2016-11-17T14:41:27.231Z,10.41
2016-11-17T14:42:37.357Z,10.41
2016-11-17T14:43:47.696Z,10.25
2016-11-17T14:44:56.957Z,10.34
2016-11-17T14:46:07.038Z,10.24
2016-11-17T14:47:17.352Z,10.18
2016-11-17T14:48:27.769Z,10.12
2016-11-17T14:49:38.106Z,10.03
2016-11-17T14:50:48.580Z,10.09
2016-11-17T14:51:58.611Z,10.07
2016-11-17T14:53:09.004Z,9.97
2016-11-17T14:54:18.502Z,9.95
2016-11-17T14:55:29.190Z,9.9
2016-11-17T14:56:39.321Z,9.87
2016-11-17T14:57:49.627Z,9.81
2016-11-17T14:58:59.003Z,9.76
2016-11-17T15:00:09.382Z,9.8
2016-11-17T15:01:19.245Z,9.85
2016-11-17T15:02:29.255Z,9.8
2016-11-17T15:03:39.606Z,9.74
2016-11-17T15:04:50.012Z,9.82
2016-11-17T15:06:00.156Z,9.81
2016-11-17T15:07:10.167Z,9.8
2016-11-17T15:08:19.268Z,9.7
2016-11-17T15:09:29.596Z,9.76
2016-11-17T15:10:39.633Z,9.64
2016-11-17T15:11:49.669Z,9.56
2016-11-17T15:13:00.008Z,9.56
2016-11-17T15:14:09.717Z,9.64
2016-11-17T15:15:19.744Z,9.72
2016-11-17T15:16:30.131Z,9.66
2016-11-17T15:17:40.463Z,9.67
2016-11-17T15:18:50.855Z,9.63
2016-11-17T15:20:01.188Z,9.56
2016-11-17T15:21:10.909Z,9.63
2016-11-17T15:22:20.931Z,9.42